createdAt,value
2022-10-01T00:01:08.035Z,58.45
2022-10-01T00:03:38.393Z,57.98
2022-10-01T00:06:10.471Z,58.49
2022-10-01T00:08:40.772Z,59.01
2022-10-01T00:11:12.583Z,58.38
2022-10-01T00:13:42.091Z,58.83
2022-10-01T00:16:12.802Z,58.56
2022-10-01T00:18:42.835Z,58.48
2022-10-01T00:21:13.242Z,58.80
2022-10-01T00:23:42.257Z,59.01
2022-10-01T00:26:13.899Z,59.17
2022-10-01T00:28:42.822Z,58.94
2022-10-01T00:31:11.864Z,58.75
2022-10-01T00:33:40.207Z,58.66
2022-10-01T00:36:10.009Z,58.80
2022-10-01T00:38:40.377Z,59.04
2022-10-01T00:41:09.841Z,59.62
2022-10-01T00:43:45.134Z,59.05
2022-10-01T00:46:19.177Z,59.21
2022-10-01T00:48:58.367Z,59.09
2022-10-01T00:51:29.908Z,59.11
2022-10-01T00:54:03.990Z,59.32
2022-10-01T00:56:34.294Z,59.34
2022-10-01T00:59:04.625Z,58.94
2022-10-01T01:01:37.741Z,59.21
2022-10-01T01:04:16.741Z,59.31
2022-10-01T01:06:47.617Z,59.38
2022-10-01T01:09:17.163Z,59.34
2022-10-01T01:11:52.807Z,59.04
2022-10-01T01:14:29.462Z,59.24
2022-10-01T01:17:02.717Z,58.80
2022-10-01T01:19:50.297Z,59.58
2022-10-01T01:22:23.916Z,59.06
2022-10-01T01:24:59.229Z,59.04
2022-10-01T01:27:33.783Z,59.20
2022-10-01T01:30:08.516Z,59.19
2022-10-01T01:32:47.929Z,59.47
2022-10-01T01:35:23.262Z,59.20
2022-10-01T01:37:56.258Z,59.49
2022-10-01T01:40:27.184Z,59.31
2022-10-01T01:42:57.585Z,58.72
2022-10-01T01:45:31.444Z,58.57
2022-10-01T01:48:02.640Z,58.87
2022-10-01T01:50:35.508Z,58.79
2022-10-01T01:53:04.087Z,58.93
2022-10-01T01:55:33.442Z,59.13
2022-10-01T01:58:02.601Z,59.25
2022-10-01T02:00:32.558Z,59.18
2022-10-01T02:03:01.378Z,59.01
2022-10-01T02:05:43.491Z,58.94
2022-10-01T02:08:29.239Z,58.52
2022-10-01T02:11:21.655Z,58.97
2022-10-01T02:14:03.219Z,58.45
2022-10-01T02:16:42.330Z,58.96
2022-10-01T02:19:15.666Z,58.64
2022-10-01T02:21:56.902Z,58.62
2022-10-01T02:24:32.986Z,58.39
2022-10-01T02:27:04.942Z,58.79
2022-10-01T02:29:35.281Z,58.45
2022-10-01T02:32:05.425Z,58.44
2022-10-01T02:34:35.226Z,58.78
2022-10-01T02:37:07.635Z,59.00
2022-10-01T02:39:37.520Z,58.81
2022-10-01T02:42:07.981Z,58.60
2022-10-01T02:44:40.355Z,59.09
2022-10-01T02:47:15.902Z,58.69
2022-10-01T02:49:44.519Z,59.04
2022-10-01T02:52:23.666Z,58.90
2022-10-01T02:54:54.811Z,58.79
2022-10-01T02:57:27.681Z,58.96
2022-10-01T02:59:59.875Z,58.78
2022-10-01T03:02:33.106Z,59.11
2022-10-01T03:05:02.136Z,59.10
2022-10-01T03:07:35.766Z,59.04
2022-10-01T03:10:04.846Z,58.99
2022-10-01T03:12:33.498Z,58.63
2022-10-01T03:15:02.752Z,58.93
2022-10-01T03:17:33.373Z,58.76
2022-10-01T03:20:02.154Z,58.70
2022-10-01T03:22:31.946Z,58.45
2022-10-01T03:25:01.069Z,58.52
2022-10-01T03:27:29.698Z,58.52
2022-10-01T03:29:58.281Z,58.74
2022-10-01T03:32:26.890Z,58.47
2022-10-01T03:34:56.985Z,58.32
2022-10-01T03:37:25.498Z,58.50
2022-10-01T03:39:54.162Z,58.63
2022-10-01T03:42:22.606Z,58.55
2022-10-01T03:44:51.063Z,58.82
2022-10-01T03:47:19.444Z,58.50
2022-10-01T03:49:48.065Z,58.33
2022-10-01T03:52:18.006Z,58.71
2022-10-01T03:54:46.463Z,58.49
2022-10-01T03:57:15.107Z,58.82
2022-10-01T03:59:43.578Z,58.53
2022-10-01T04:02:12.175Z,58.22
2022-10-01T04:04:40.791Z,58.49
2022-10-01T04:07:09.424Z,58.72
2022-10-01T04:09:39.386Z,58.47
2022-10-01T04:12:08.034Z,58.55
2022-10-01T04:14:36.439Z,58.84
2022-10-01T04:17:04.868Z,58.82
2022-10-01T04:19:33.269Z,58.84
2022-10-01T04:22:01.750Z,59.16
2022-10-01T04:24:30.238Z,58.55
2022-10-01T04:27:00.035Z,58.89
2022-10-01T04:29:28.487Z,58.69
2022-10-01T04:31:58.383Z,58.88
2022-10-01T04:34:47.577Z,58.79
2022-10-01T04:37:16.098Z,58.78
2022-10-01T04:39:44.625Z,58.74
2022-10-01T04:42:15.201Z,58.21
2022-10-01T04:44:43.736Z,58.58
2022-10-01T04:47:12.169Z,58.47
2022-10-01T04:49:40.671Z,58.19
2022-10-01T04:52:09.453Z,58.24
2022-10-01T04:54:37.905Z,58.54
2022-10-01T04:57:06.393Z,58.64
2022-10-01T04:59:36.310Z,58.64
2022-10-01T05:02:04.801Z,58.89
2022-10-01T05:04:33.330Z,58.60
2022-10-01T05:07:01.836Z,58.55
2022-10-01T05:09:30.269Z,58.70
2022-10-01T05:11:58.867Z,58.64
2022-10-01T05:14:27.378Z,58.93
2022-10-01T05:16:57.260Z,58.99
2022-10-01T05:19:29.156Z,59.12
2022-10-01T05:21:57.769Z,58.54
2022-10-01T05:24:26.528Z,58.71
2022-10-01T05:26:55.306Z,58.40
2022-10-01T05:29:23.724Z,58.87
2022-10-01T05:31:52.407Z,58.53
2022-10-01T05:34:22.485Z,58.30
2022-10-01T05:36:50.909Z,58.70
2022-10-01T05:39:19.482Z,58.45
2022-10-01T05:41:48.224Z,58.67
2022-10-01T05:44:16.771Z,58.25
2022-10-01T05:46:45.211Z,58.85
2022-10-01T05:49:13.773Z,59.74
2022-10-01T05:51:43.732Z,59.93
2022-10-01T05:54:12.680Z,59.97
2022-10-01T05:56:41.192Z,60.39
2022-10-01T05:59:09.722Z,60.73
2022-10-01T06:01:38.226Z,60.78
2022-10-01T06:04:06.774Z,60.87
2022-10-01T06:06:35.303Z,60.77
2022-10-01T06:09:05.376Z,61.29
2022-10-01T06:11:37.434Z,61.60
2022-10-01T06:14:06.328Z,61.70
2022-10-01T06:16:34.885Z,61.72
2022-10-01T06:19:03.872Z,61.81
2022-10-01T06:21:32.963Z,62.04
2022-10-01T06:24:01.573Z,62.26
2022-10-01T06:26:31.444Z,61.60
2022-10-01T06:29:00.066Z,61.77
2022-10-01T06:31:28.563Z,62.04
2022-10-01T06:33:57.102Z,61.99
2022-10-01T06:36:25.644Z,61.56
2022-10-01T06:38:54.188Z,61.59
2022-10-01T06:41:22.710Z,61.68
2022-10-01T06:43:52.608Z,61.40
2022-10-01T06:46:21.280Z,61.46
2022-10-01T06:48:49.994Z,61.37
2022-10-01T06:51:39.044Z,61.72
2022-10-01T06:54:06.354Z,61.27
2022-10-01T06:56:36.580Z,61.56
2022-10-01T06:59:06.537Z,62.07
2022-10-01T07:01:36.878Z,62.52
2022-10-01T07:04:05.830Z,62.63
2022-10-01T07:06:34.290Z,62.99
2022-10-01T07:09:02.801Z,62.57
2022-10-01T07:11:32.997Z,63.07
2022-10-01T07:14:01.662Z,63.02
2022-10-01T07:16:31.623Z,62.60
2022-10-01T07:19:00.198Z,62.67
2022-10-01T07:21:28.609Z,63.08
2022-10-01T07:23:57.032Z,63.13
2022-10-01T07:26:25.500Z,63.14
2022-10-01T07:28:55.279Z,62.81
2022-10-01T07:31:24.345Z,63.07
2022-10-01T07:33:59.180Z,63.04
2022-10-01T07:36:27.808Z,62.91
2022-10-01T07:38:56.361Z,62.38
2022-10-01T07:41:25.117Z,62.65
2022-10-01T07:43:53.585Z,62.45
2022-10-01T07:46:22.057Z,62.42
2022-10-01T07:48:51.088Z,62.34
2022-10-01T07:51:21.098Z,62.38
2022-10-01T07:53:51.048Z,62.53
2022-10-01T07:56:19.892Z,62.12
2022-10-01T07:58:48.500Z,62.60
2022-10-01T08:01:17.359Z,62.09
2022-10-01T08:03:45.843Z,62.30
2022-10-01T08:06:15.234Z,62.25
2022-10-01T08:08:45.496Z,62.12
2022-10-01T08:11:17.760Z,61.57
2022-10-01T08:13:46.950Z,61.60
2022-10-01T08:16:15.499Z,61.91
2022-10-01T08:18:44.031Z,61.90
2022-10-01T08:21:12.574Z,61.25
2022-10-01T08:23:41.079Z,61.10
2022-10-01T08:26:11.796Z,61.84
2022-10-01T08:28:41.102Z,61.64
2022-10-01T08:31:10.088Z,61.83
2022-10-01T08:33:40.051Z,61.61
2022-10-01T08:36:09.287Z,61.42
2022-10-01T08:38:38.225Z,62.04
2022-10-01T08:41:23.194Z,61.39
2022-10-01T08:43:54.209Z,61.80
2022-10-01T08:46:26.215Z,61.26
2022-10-01T08:49:03.799Z,61.18
2022-10-01T08:51:40.250Z,61.33
2022-10-01T08:54:17.203Z,61.59
2022-10-01T08:56:48.479Z,61.53
2022-10-01T08:59:30.953Z,61.46
2022-10-01T09:02:00.348Z,61.32
2022-10-01T09:04:30.473Z,61.02
2022-10-01T09:07:06.396Z,61.43
2022-10-01T09:09:45.405Z,60.80
2022-10-01T09:12:26.484Z,61.02
2022-10-01T09:15:21.404Z,60.60
2022-10-01T09:18:02.880Z,60.97
2022-10-01T09:20:37.570Z,60.48
2022-10-01T09:23:19.746Z,60.27
2022-10-01T09:25:51.547Z,60.56
2022-10-01T09:28:23.632Z,60.52
2022-10-01T09:30:56.956Z,60.51
2022-10-01T09:33:31.019Z,60.42
2022-10-01T09:36:09.121Z,60.59
2022-10-01T09:38:41.581Z,60.44
2022-10-01T09:41:11.867Z,59.85
2022-10-01T09:43:45.181Z,60.16
2022-10-01T09:46:17.682Z,59.79
2022-10-01T09:48:56.618Z,59.73
2022-10-01T09:51:34.822Z,59.77
2022-10-01T09:54:13.100Z,60.06
2022-10-01T09:56:48.125Z,60.28
2022-10-01T09:59:22.701Z,60.24
2022-10-01T10:01:54.641Z,59.85
2022-10-01T10:04:24.568Z,60.12
2022-10-01T10:07:00.241Z,60.30
2022-10-01T10:09:32.042Z,60.75
2022-10-01T10:12:01.532Z,61.09
2022-10-01T10:14:35.138Z,61.11
2022-10-01T10:17:08.663Z,61.27
2022-10-01T10:19:38.733Z,61.52
2022-10-01T10:22:19.671Z,61.59
2022-10-01T10:24:48.259Z,62.27
2022-10-01T10:27:25.337Z,62.44
2022-10-01T10:30:06.621Z,62.64
2022-10-01T10:32:35.202Z,62.54
2022-10-01T10:35:10.794Z,63.10
2022-10-01T10:37:46.275Z,62.90
2022-10-01T10:40:20.251Z,62.47
2022-10-01T10:42:50.863Z,62.30
2022-10-01T10:45:23.883Z,62.75
2022-10-01T10:47:53.980Z,62.16
2022-10-01T10:50:31.167Z,62.03
2022-10-01T10:53:00.272Z,61.92
2022-10-01T10:55:31.648Z,62.02
2022-10-01T10:58:12.157Z,61.57
2022-10-01T11:00:50.648Z,62.12
2022-10-01T11:03:23.792Z,61.86
2022-10-01T11:05:52.394Z,62.41
2022-10-01T11:08:25.152Z,62.14
2022-10-01T11:11:07.727Z,62.07
2022-10-01T11:13:51.923Z,62.03
2022-10-01T11:16:35.974Z,61.74
2022-10-01T11:19:16.369Z,61.88
2022-10-01T11:22:05.734Z,61.73
2022-10-01T11:25:01.123Z,61.88
2022-10-01T11:27:40.371Z,62.01
2022-10-01T11:30:15.124Z,61.67
2022-10-01T11:32:51.325Z,61.77
2022-10-01T11:35:34.575Z,61.89
2022-10-01T11:38:41.450Z,61.49
2022-10-01T11:41:21.841Z,61.46
2022-10-01T11:43:54.428Z,61.38
2022-10-01T11:46:49.691Z,61.30
2022-10-01T11:49:43.123Z,61.20
2022-10-01T11:52:22.179Z,61.23
2022-10-01T11:55:21.897Z,61.33
2022-10-01T11:58:14.109Z,61.19
2022-10-01T12:00:45.515Z,60.98
2022-10-01T12:03:21.773Z,60.72
2022-10-01T12:05:53.367Z,60.67
2022-10-01T12:08:27.621Z,60.58
2022-10-01T12:11:02.267Z,60.81
2022-10-01T12:13:34.429Z,60.49
2022-10-01T12:16:11.080Z,60.49
2022-10-01T12:18:51.293Z,60.95
2022-10-01T12:21:27.241Z,60.97
2022-10-01T12:24:00.771Z,61.22
2022-10-01T12:26:40.484Z,61.52
2022-10-01T12:29:17.560Z,61.14
2022-10-01T12:31:58.157Z,61.48
2022-10-01T12:34:38.261Z,61.05
2022-10-01T12:37:21.977Z,61.19
2022-10-01T12:40:10.284Z,61.17
2022-10-01T12:43:33.904Z,61.29
2022-10-01T12:46:09.570Z,61.45
2022-10-01T12:48:47.780Z,60.86
2022-10-01T12:51:36.279Z,60.83
2022-10-01T12:54:21.246Z,61.42
2022-10-01T12:56:58.647Z,61.40
2022-10-01T12:59:48.395Z,61.19
2022-10-01T13:02:35.084Z,61.63
2022-10-01T13:05:20.419Z,61.39
2022-10-01T13:08:09.338Z,61.02
2022-10-01T13:10:54.425Z,61.21
2022-10-01T13:13:26.786Z,61.44
2022-10-01T13:16:04.068Z,61.72
2022-10-01T13:18:41.095Z,62.43
2022-10-01T13:21:17.880Z,62.50
2022-10-01T13:23:52.286Z,62.44
2022-10-01T13:26:30.755Z,62.37
2022-10-01T13:29:12.514Z,62.88
2022-10-01T13:31:53.118Z,63.08
2022-10-01T13:34:29.231Z,63.13
2022-10-01T13:36:57.766Z,63.14
2022-10-01T13:39:28.965Z,63.05
2022-10-01T13:42:00.091Z,63.26
2022-10-01T13:44:34.885Z,63.91
2022-10-01T13:47:07.268Z,63.82
2022-10-01T13:49:38.369Z,64.48
2022-10-01T13:52:07.264Z,64.72
2022-10-01T13:54:40.374Z,64.74
2022-10-01T13:57:11.466Z,65.64
2022-10-01T13:59:40.177Z,65.05
2022-10-01T14:02:33.163Z,65.16
2022-10-01T14:05:23.387Z,65.74
2022-10-01T14:07:57.810Z,65.18
2022-10-01T14:11:01.643Z,65.29
2022-10-01T14:13:50.065Z,65.03
2022-10-01T14:16:19.208Z,65.20
2022-10-01T14:18:49.840Z,64.84
2022-10-01T14:21:45.582Z,64.65
2022-10-01T14:24:25.810Z,63.85
2022-10-01T14:26:57.681Z,63.66
2022-10-01T14:29:45.577Z,63.44
2022-10-01T14:32:25.916Z,63.09
2022-10-01T14:35:26.785Z,62.41
2022-10-01T14:38:01.514Z,61.93
2022-10-01T14:40:38.935Z,61.72
2022-10-01T14:43:17.797Z,61.54
2022-10-01T14:46:00.168Z,61.18
2022-10-01T14:48:30.876Z,60.96
2022-10-01T14:51:02.008Z,60.61
2022-10-01T14:53:33.574Z,60.53
2022-10-01T14:56:06.694Z,60.36
2022-10-01T14:58:39.468Z,60.39
2022-10-01T15:01:18.352Z,60.36
2022-10-01T15:03:47.489Z,60.57
2022-10-01T15:06:16.451Z,60.74
2022-10-01T15:08:47.929Z,60.17
2022-10-01T15:11:19.854Z,60.39
2022-10-01T15:13:51.085Z,60.10
2022-10-01T15:16:23.676Z,60.25
2022-10-01T15:18:55.053Z,60.05
2022-10-01T15:21:28.306Z,59.75
2022-10-01T15:23:58.067Z,60.15
2022-10-01T15:26:29.934Z,60.01
2022-10-01T15:29:05.956Z,59.75
2022-10-01T15:31:36.272Z,59.85
2022-10-01T15:34:07.128Z,60.14
2022-10-01T15:36:37.098Z,60.10
2022-10-01T15:39:25.302Z,60.02
2022-10-01T15:41:54.973Z,59.67
2022-10-01T15:44:42.838Z,59.96
2022-10-01T15:47:33.241Z,59.97
2022-10-01T15:50:14.585Z,60.01
2022-10-01T15:52:53.433Z,60.09
2022-10-01T15:55:28.633Z,60.29
2022-10-01T15:58:04.627Z,60.57
2022-10-01T16:00:40.674Z,60.20
2022-10-01T16:03:19.827Z,60.02
2022-10-01T16:05:49.390Z,60.46
2022-10-01T16:08:21.988Z,59.76
2022-10-01T16:11:09.948Z,59.96
2022-10-01T16:13:40.382Z,60.00
2022-10-01T16:16:19.977Z,59.84
2022-10-01T16:18:54.267Z,59.96
2022-10-01T16:21:23.393Z,59.65
2022-10-01T16:23:57.138Z,59.66
2022-10-01T16:26:37.950Z,59.37
2022-10-01T16:29:23.488Z,59.45
2022-10-01T16:31:52.513Z,59.66
2022-10-01T16:34:22.560Z,59.55
2022-10-01T16:36:51.631Z,59.42
2022-10-01T16:39:20.031Z,59.59
2022-10-01T16:42:06.206Z,59.83
2022-10-01T16:44:41.233Z,60.26
2022-10-01T16:47:12.750Z,59.84
2022-10-01T16:49:42.738Z,60.46
2022-10-01T16:52:16.703Z,60.44
2022-10-01T16:54:47.548Z,60.35
2022-10-01T16:57:17.734Z,60.74
2022-10-01T16:59:46.182Z,61.39
2022-10-01T17:02:16.101Z,62.67
2022-10-01T17:04:46.154Z,63.74
2022-10-01T17:07:14.603Z,64.19
2022-10-01T17:09:43.046Z,64.94
2022-10-01T17:12:11.539Z,65.01
2022-10-01T17:14:40.494Z,65.67
2022-10-01T17:17:08.936Z,65.67
2022-10-01T17:19:37.418Z,65.47
2022-10-01T17:22:07.281Z,65.44
2022-10-01T17:24:35.894Z,66.20
2022-10-01T17:27:04.337Z,66.08
2022-10-01T17:29:33.616Z,66.52
2022-10-01T17:32:02.225Z,66.25
2022-10-01T17:34:30.802Z,66.61
2022-10-01T17:37:00.224Z,66.51
2022-10-01T17:39:32.956Z,66.73
2022-10-01T17:42:01.447Z,67.05
2022-10-01T17:44:29.967Z,66.81
2022-10-01T17:46:58.508Z,66.87
2022-10-01T17:49:27.020Z,66.19
2022-10-01T17:51:55.505Z,66.74
2022-10-01T17:54:23.923Z,66.47
2022-10-01T17:56:56.119Z,66.48
2022-10-01T17:59:24.610Z,66.05
2022-10-01T18:01:53.721Z,66.31
2022-10-01T18:04:22.314Z,66.23
2022-10-01T18:06:52.339Z,66.32
2022-10-01T18:09:21.078Z,66.44
2022-10-01T18:11:49.888Z,66.64
2022-10-01T18:14:19.847Z,66.56
2022-10-01T18:16:48.456Z,66.26
2022-10-01T18:19:53.030Z,66.62
2022-10-01T18:22:13.575Z,66.42
2022-10-01T18:24:42.601Z,66.41
2022-10-01T18:27:11.070Z,66.43
2022-10-01T18:29:41.562Z,66.82
2022-10-01T18:32:17.202Z,66.43
2022-10-01T18:34:51.068Z,67.18
2022-10-01T18:37:29.826Z,66.49
2022-10-01T18:40:04.611Z,67.34
2022-10-01T18:42:42.827Z,67.05
2022-10-01T18:45:18.199Z,67.24
2022-10-01T18:48:00.575Z,66.92
2022-10-01T18:50:38.011Z,66.96
2022-10-01T18:53:25.403Z,67.31
2022-10-01T18:56:20.342Z,67.41
2022-10-01T18:59:16.395Z,67.53
2022-10-01T19:01:56.878Z,66.95
2022-10-01T19:04:55.367Z,67.34
2022-10-01T19:07:39.602Z,67.47
2022-10-01T19:10:17.261Z,67.47
2022-10-01T19:12:55.774Z,67.40
2022-10-01T19:15:37.268Z,67.15
2022-10-01T19:18:33.063Z,67.40
2022-10-01T19:21:13.810Z,67.20
2022-10-01T19:24:01.266Z,67.68
2022-10-01T19:26:35.313Z,67.75
2022-10-01T19:29:20.203Z,67.71
2022-10-01T19:31:54.120Z,67.73
2022-10-01T19:34:29.758Z,67.12
2022-10-01T19:37:03.074Z,67.49
2022-10-01T19:39:36.538Z,67.45
2022-10-01T19:42:11.938Z,67.65
2022-10-01T19:44:47.842Z,67.02
2022-10-01T19:47:25.175Z,67.41
2022-10-01T19:49:58.984Z,67.15
2022-10-01T19:52:31.797Z,67.21
2022-10-01T19:55:00.924Z,67.73
2022-10-01T19:57:31.571Z,67.62
2022-10-01T20:00:04.522Z,67.14
2022-10-01T20:02:35.388Z,67.40
2022-10-01T20:05:08.230Z,67.27
2022-10-01T20:07:47.022Z,67.29
2022-10-01T20:10:21.866Z,67.34
2022-10-01T20:13:01.565Z,67.36
2022-10-01T20:15:42.130Z,67.29
2022-10-01T20:18:28.026Z,67.43
2022-10-01T20:21:21.751Z,67.04
2022-10-01T20:23:57.084Z,67.30
2022-10-01T20:26:34.545Z,66.70
2022-10-01T20:29:15.361Z,66.89
2022-10-01T20:31:53.976Z,67.11
2022-10-01T20:34:32.185Z,66.98
2022-10-01T20:37:15.799Z,66.66
2022-10-01T20:39:50.844Z,67.09
2022-10-01T20:42:25.283Z,67.03
2022-10-01T20:44:54.977Z,66.56
2022-10-01T20:47:29.024Z,66.64
2022-10-01T20:50:09.152Z,66.59
2022-10-01T20:52:48.793Z,66.59
2022-10-01T20:55:19.246Z,66.48
2022-10-01T20:57:52.802Z,66.73
2022-10-01T21:00:23.520Z,66.58
2022-10-01T21:02:56.539Z,66.85
2022-10-01T21:05:29.997Z,67.04
2022-10-01T21:08:04.506Z,66.79
2022-10-01T21:10:40.928Z,66.62
2022-10-01T21:13:16.215Z,66.73
2022-10-01T21:15:56.054Z,66.66
2022-10-01T21:18:38.692Z,66.44
2022-10-01T21:21:19.873Z,66.50
2022-10-01T21:24:01.185Z,66.66
2022-10-01T21:26:43.399Z,66.82
2022-10-01T21:29:30.455Z,66.42
2022-10-01T21:32:12.915Z,66.50
2022-10-01T21:34:57.032Z,66.97
2022-10-01T21:37:32.115Z,66.54
2022-10-01T21:40:12.517Z,66.70
2022-10-01T21:42:53.597Z,66.64
2022-10-01T21:45:29.022Z,66.51
2022-10-01T21:48:13.617Z,66.83
2022-10-01T21:50:53.045Z,66.47
2022-10-01T21:53:56.119Z,66.73
2022-10-01T21:56:42.015Z,66.64
2022-10-01T21:59:22.846Z,66.33
2022-10-01T22:02:05.287Z,66.22
2022-10-01T22:04:40.478Z,66.66
2022-10-01T22:07:19.038Z,66.64
2022-10-01T22:10:01.777Z,66.06
2022-10-01T22:12:37.449Z,66.40
2022-10-01T22:15:16.962Z,66.04
2022-10-01T22:17:47.466Z,66.46
2022-10-01T22:20:18.177Z,66.00
2022-10-01T22:22:49.359Z,66.25
2022-10-01T22:25:17.993Z,65.86
2022-10-01T22:27:52.874Z,65.79
2022-10-01T22:30:23.237Z,65.95
2022-10-01T22:32:57.960Z,66.41
2022-10-01T22:35:32.268Z,65.99
2022-10-01T22:38:11.415Z,66.45
2022-10-01T22:40:45.534Z,65.86
2022-10-01T22:43:15.606Z,66.16
2022-10-01T22:46:02.712Z,66.00
2022-10-01T22:48:47.360Z,66.27
2022-10-01T22:51:29.555Z,66.38
2022-10-01T22:54:23.984Z,66.29
2022-10-01T22:57:01.167Z,66.33
2022-10-01T22:59:41.134Z,66.47
2022-10-01T23:02:18.544Z,65.99
2022-10-01T23:04:59.955Z,66.53
2022-10-01T23:07:42.298Z,66.36
2022-10-01T23:10:15.422Z,66.51
